Jeppesen Maersk — OWTW2 — position and weather

sailwx.info

Track history (hours):
 
Tides and Currents Weather Stations Pressure Air Temp Water Temp Dewpoint Dewpoint Depression Visibility Wind Speed Wind Dir Waves Ship Positions

Jeppesen Maersk

Last reported at 2016-May-30 20:33 UTC. Time now 2016-May-31 20:00 UTC.
Position S 36°14' E 174°59'.

Type: Ship (hazmat cat A). MMSI: 219953000.

Date/timePositionNaut miles runAvg speedWind from/ knotsBaromVisibWave heightAir tempDewpointWater temp
2016-May-30 20:33S 36°14' E 174°59'9 9.5
2016-May-30 19:33S 36°24' E 174°60'10 9.6
2016-May-30 18:33S 36°33' E 174°59'10 9.9
2016-May-30 17:33S 36°42' E 174°53'9 9.1
2016-May-30 16:33S 36°50' E 174°49'1 1.3
2016-May-30 15:29S 36°51' E 174°47'0 0.0
2016-May-30 14:29S 36°51' E 174°47'0 0.0
2016-May-30 13:23S 36°51' E 174°47'0 0.0
2016-May-30 12:29S 36°51' E 174°47'0 0.0
2016-May-30 11:29S 36°51' E 174°47'0 0.0
2016-May-30 10:29S 36°51' E 174°47'0 0.0
2016-May-30 09:29S 36°51' E 174°47'0 0.0
2016-May-30 07:11S 36°51' E 174°47'0 0.0
2016-May-30 06:33S 36°51' E 174°47'4 4.1
2016-May-30 05:33S 36°47' E 174°48'1010.1
2016-May-30 04:33S 36°39' E 174°56'1010.2
2016-May-30 03:33S 36°32' E 175°06'1010.2
2016-May-30 02:33S 36°26' E 175°16'  
Track history (hours):
 
Tides and Currents Weather Stations Pressure Air Temp Water Temp Dewpoint Dewpoint Depression Visibility Wind Speed Wind Dir Waves Ship Positions

Jeppesen Maersk

Last reported at 2016-May-30 20:33 UTC. Time now 2016-May-31 20:00 UTC.
Position S 36°14' E 174°59'.

Type: Ship (hazmat cat A). MMSI: 219953000.

Date/timePositionNaut miles runAvg speedWind from/ knotsBaromVisibWave heightAir tempDewpointWater temp
2016-May-30 20:33S 36°14' E 174°59'9 9.5
2016-May-30 19:33S 36°24' E 174°60'10 9.6
2016-May-30 18:33S 36°33' E 174°59'10 9.9
2016-May-30 17:33S 36°42' E 174°53'9 9.1
2016-May-30 16:33S 36°50' E 174°49'1 1.3
2016-May-30 15:29S 36°51' E 174°47'0 0.0
2016-May-30 14:29S 36°51' E 174°47'0 0.0
2016-May-30 13:23S 36°51' E 174°47'0 0.0
2016-May-30 12:29S 36°51' E 174°47'0 0.0
2016-May-30 11:29S 36°51' E 174°47'0 0.0
2016-May-30 10:29S 36°51' E 174°47'0 0.0
2016-May-30 09:29S 36°51' E 174°47'0 0.0
2016-May-30 07:11S 36°51' E 174°47'0 0.0
2016-May-30 06:33S 36°51' E 174°47'4 4.1
2016-May-30 05:33S 36°47' E 174°48'1010.1
2016-May-30 04:33S 36°39' E 174°56'1010.2
2016-May-30 03:33S 36°32' E 175°06'1010.2
2016-May-30 02:33S 36°26' E 175°16'  

Dump ship's entire track history